createdAt,value
2022-08-03T05:34:15.156Z,52.60
2022-08-03T05:37:18.201Z,46.03
2022-08-03T05:40:21.177Z,45.08
2022-08-03T05:43:24.109Z,49.70
2022-08-03T05:46:26.793Z,45.40
2022-08-03T05:49:29.710Z,45.30
2022-08-03T05:52:32.360Z,40.67
2022-08-03T05:55:35.420Z,43.95
2022-08-03T05:58:38.205Z,48.65
2022-08-03T06:01:41.184Z,45.45
2022-08-03T06:04:44.132Z,79.90
2022-08-03T06:07:47.146Z,47.97
2022-08-03T06:10:50.790Z,57.13
2022-08-03T06:13:53.497Z,64.45
2022-08-03T06:16:56.489Z,47.67
2022-08-03T06:19:59.372Z,55.28
2022-08-03T06:23:23.845Z,64.32
2022-08-03T06:26:46.156Z,98.43
2022-08-03T06:29:57.826Z,65.45
2022-08-03T06:33:00.719Z,53.30
2022-08-03T06:36:04.066Z,57.25
2022-08-03T06:39:08.147Z,52.42
2022-08-03T06:42:11.903Z,54.80
2022-08-03T06:45:14.755Z,63.87
2022-08-03T06:48:17.854Z,57.38
2022-08-03T06:51:20.544Z,72.55
2022-08-03T06:54:24.509Z,62.30
2022-08-03T06:57:27.454Z,60.25
2022-08-03T07:00:32.091Z,57.90
2022-08-03T07:03:34.826Z,44.42
2022-08-03T07:06:39.192Z,38.65
2022-08-03T07:09:41.944Z,51.55
2022-08-03T07:13:00.581Z,108.12
2022-08-03T07:16:03.352Z,49.97
2022-08-03T07:19:06.369Z,45.78
2022-08-03T07:22:09.173Z,42.00
2022-08-03T07:25:12.169Z,43.85
2022-08-03T07:28:15.439Z,57.62
2022-08-03T07:31:18.842Z,53.90
2022-08-03T07:34:21.672Z,62.40
2022-08-03T07:37:24.780Z,42.85
2022-08-03T07:40:28.678Z,46.80
2022-08-03T07:43:35.046Z,48.25
2022-08-03T07:46:37.873Z,45.80
2022-08-03T07:49:42.655Z,49.47
2022-08-03T07:52:48.200Z,55.10
2022-08-03T07:55:51.423Z,76.75
2022-08-03T07:58:54.923Z,55.75
2022-08-03T08:01:57.903Z,51.10
2022-08-03T08:05:05.353Z,79.03
2022-08-03T08:08:08.609Z,65.68
2022-08-03T08:11:11.680Z,57.13
2022-08-03T08:14:14.431Z,101.65
2022-08-03T08:17:17.405Z,50.30
2022-08-03T08:20:27.950Z,53.97
2022-08-03T08:23:42.907Z,47.38
2022-08-03T08:26:46.910Z,57.70
2022-08-03T08:29:54.573Z,66.87
2022-08-03T08:33:00.390Z,66.25
2022-08-03T08:36:03.578Z,70.10
2022-08-03T08:39:06.268Z,74.25
2022-08-03T08:42:10.557Z,76.22
2022-08-03T08:45:15.611Z,175.77
2022-08-03T08:48:24.664Z,102.30
2022-08-03T08:51:50.981Z,68.62
2022-08-03T08:55:04.008Z,74.40
2022-08-03T08:58:09.606Z,67.20
2022-08-03T09:01:12.739Z,77.28
2022-08-03T09:04:15.990Z,60.67
2022-08-03T09:07:20.391Z,64.32
2022-08-03T09:10:23.672Z,64.85
2022-08-03T09:13:26.913Z,64.75
2022-08-03T09:16:29.738Z,68.35
2022-08-03T09:19:34.879Z,62.75
2022-08-03T09:22:52.938Z,59.85
2022-08-03T09:26:00.068Z,65.25
2022-08-03T09:29:16.784Z,82.23
2022-08-03T09:32:22.253Z,84.87
2022-08-03T09:35:51.588Z,74.65
2022-08-03T09:39:12.944Z,78.93
2022-08-03T09:42:18.386Z,76.82
2022-08-03T09:45:30.040Z,73.50
2022-08-03T09:48:37.368Z,78.75
2022-08-03T09:52:32.566Z,243.85
2022-08-03T09:56:31.642Z,137.10
2022-08-03T09:58:47.115Z,155.65
2022-08-03T10:01:49.970Z,146.80
2022-08-03T10:04:54.238Z,140.20
2022-08-03T10:07:56.949Z,129.55
2022-08-03T10:11:00.658Z,124.78
2022-08-03T10:14:08.408Z,128.30
2022-08-03T10:17:11.438Z,129.70
2022-08-03T10:20:15.074Z,153.80
2022-08-03T10:23:20.131Z,123.85
2022-08-03T10:26:26.314Z,121.18
2022-08-03T10:29:33.105Z,123.18
2022-08-03T10:32:43.111Z,141.75
2022-08-03T10:35:48.815Z,134.20
2022-08-03T10:38:53.758Z,128.60
2022-08-03T10:42:02.746Z,123.55
2022-08-03T10:45:09.490Z,129.85
2022-08-03T10:48:14.030Z,139.23
2022-08-03T10:51:19.260Z,129.00
2022-08-03T10:54:37.579Z,129.93
2022-08-03T10:57:58.218Z,123.25
2022-08-03T11:01:02.222Z,136.55
2022-08-03T11:04:09.586Z,129.82
2022-08-03T11:07:24.102Z,130.20
2022-08-03T11:10:31.980Z,131.70
2022-08-03T11:13:35.186Z,125.80
2022-08-03T11:16:45.302Z,272.05
2022-08-03T11:19:56.800Z,124.45
2022-08-03T11:23:01.788Z,133.48
2022-08-03T11:26:16.084Z,134.87
2022-08-03T11:29:30.519Z,133.93
2022-08-03T11:32:40.554Z,123.87
2022-08-03T11:36:01.480Z,119.32
2022-08-03T11:39:16.857Z,122.05
2022-08-03T11:42:31.752Z,134.25
2022-08-03T11:45:35.916Z,118.35
2022-08-03T11:48:43.137Z,122.55
2022-08-03T11:51:46.143Z,128.43
2022-08-03T11:54:56.647Z,122.62
2022-08-03T11:59:01.553Z,127.12
2022-08-03T12:01:25.753Z,126.62
2022-08-03T12:04:28.773Z,124.78
2022-08-03T12:08:03.616Z,140.48
2022-08-03T12:10:56.637Z,123.03
2022-08-03T12:14:50.785Z,120.55
2022-08-03T12:17:22.904Z,120.97
2022-08-03T12:20:31.509Z,115.80
2022-08-03T12:23:39.829Z,121.75
2022-08-03T12:26:58.489Z,112.82
2022-08-03T12:30:03.687Z,110.82
2022-08-03T12:33:33.670Z,119.22
2022-08-03T12:36:38.584Z,114.55
2022-08-03T12:40:02.660Z,122.03
2022-08-03T12:43:12.775Z,121.78
2022-08-03T12:46:17.587Z,127.18
2022-08-03T12:49:21.277Z,128.18
2022-08-03T12:52:24.137Z,125.78
2022-08-03T12:55:57.192Z,126.20
2022-08-03T12:58:59.069Z,126.72
2022-08-03T13:02:09.534Z,129.63
2022-08-03T13:05:14.422Z,116.03
2022-08-03T13:08:23.576Z,115.53
2022-08-03T13:11:50.635Z,121.18
2022-08-03T13:15:00.569Z,124.25
2022-08-03T13:18:23.288Z,119.75
2022-08-03T13:21:26.500Z,123.93
2022-08-03T13:24:30.534Z,129.00
2022-08-03T13:28:03.128Z,130.07
2022-08-03T13:31:08.255Z,123.32
2022-08-03T13:34:11.360Z,127.10
2022-08-03T13:37:14.793Z,113.10
2022-08-03T13:40:23.621Z,126.45
2022-08-03T13:43:33.051Z,124.62
2022-08-03T13:46:36.262Z,126.18
2022-08-03T13:49:39.712Z,114.62
2022-08-03T13:52:42.935Z,118.87
2022-08-03T13:55:45.939Z,118.75
2022-08-03T13:58:49.263Z,114.40
2022-08-03T14:01:55.751Z,124.40
2022-08-03T14:04:59.068Z,115.30
2022-08-03T14:08:05.321Z,115.88
2022-08-03T14:11:08.717Z,116.88
2022-08-03T14:14:11.824Z,112.07
2022-08-03T14:17:16.518Z,108.30
2022-08-03T14:20:37.177Z,109.82
2022-08-03T14:23:42.874Z,121.85
2022-08-03T14:26:47.558Z,121.90
2022-08-03T14:29:51.590Z,106.35
2022-08-03T14:32:56.875Z,128.70
2022-08-03T14:36:04.402Z,118.05
2022-08-03T14:39:07.186Z,125.30
2022-08-03T15:44:50.570Z,121.25
2022-08-03T15:47:53.662Z,125.25
2022-08-03T15:50:56.537Z,122.50
2022-08-03T15:53:59.549Z,120.97
2022-08-03T15:57:02.216Z,120.75
2022-08-03T16:00:08.297Z,114.00
2022-08-03T16:03:28.368Z,123.78
2022-08-03T16:06:47.197Z,122.50
2022-08-03T16:09:50.229Z,126.90
2022-08-03T16:12:52.922Z,111.43
2022-08-03T16:15:56.063Z,115.72
2022-08-03T16:18:58.838Z,115.43
2022-08-03T16:22:10.776Z,124.87
2022-08-03T16:25:17.380Z,119.60
2022-08-03T16:28:20.975Z,128.82
2022-08-03T16:31:27.191Z,118.62
2022-08-03T16:34:30.256Z,112.37
2022-08-03T16:37:38.519Z,123.85
2022-08-03T16:40:43.067Z,111.18
2022-08-03T16:43:45.889Z,122.15
2022-08-03T16:46:48.845Z,112.68
2022-08-03T16:49:56.057Z,112.62
2022-08-03T16:52:59.585Z,109.37
2022-08-03T16:56:06.718Z,108.57
2022-08-03T16:59:13.383Z,116.65
2022-08-03T17:02:26.151Z,108.07
2022-08-03T17:05:43.787Z,112.68
2022-08-03T17:08:55.068Z,106.07
2022-08-03T17:11:58.747Z,106.20
2022-08-03T17:15:04.255Z,108.53
2022-08-03T17:18:11.908Z,106.40
2022-08-03T17:21:21.185Z,110.50
2022-08-03T17:24:31.200Z,111.55
2022-08-03T17:28:50.492Z,119.10
2022-08-03T17:31:23.495Z,114.45
2022-08-03T17:34:35.377Z,112.22
2022-08-03T17:37:57.473Z,116.93
2022-08-03T17:41:01.983Z,110.47
